Archival Weather

Chicago O'Hare International

Chicago, Illinois (KORD)

Report from: Wednesday, August 23, 2023 11:51 AM CDT
Current time: Monday, July 22, 2024 6:14 AM CDT

Current weather – Weather history – Daily summaries
Weather forecast

Temperature33.9°C (93.0°F)
Heat index44.6°C (112.4°F)
Dew point26.7°C (80.1°F)
Winds 14 kts (7.2 m/s, 16.1 mph) West (260°)
Wind gusts 23 kts (11.8 m/s, 26.5 mph)
Visibility10 mi. (16.1 km)
Clouds Few clouds 1,800 ft. (549 m)
Few clouds 25,000 ft. (7,620 m)
Altimeter29.95 in.Hg (1014 mB)
Relative humidity66 %
Density altitude2,609 ft. (795 m)
Sea-level pressure101.3 kPa (1013 mB, 29.93 in.Hg)
Remarks Automated weather observing station with precipitation discriminator
Flight conditions Visual Meteorological Conditions
Raw dataKORD 231651Z 26014G23KT 10SM FEW018 FEW250 34/27 A2995 RMK AO2 SLP134 T03390267
An error has occurred. This application may no longer respond until reloaded. Reload 🗙